sensor_id;sensor_type;location;lat;lon;timestamp;P1;durP1;ratioP1;P2;durP2;ratioP2
14528;SDS011;7351;51.194;4.098;2023-01-28T00:00:14;3.27;;;3.17;;
14528;SDS011;7351;51.194;4.098;2023-01-28T00:02:42;4.23;;;4.03;;
14528;SDS011;7351;51.194;4.098;2023-01-28T00:05:09;3.60;;;3.40;;
14528;SDS011;7351;51.194;4.098;2023-01-28T00:07:36;3.87;;;3.67;;
14528;SDS011;7351;51.194;4.098;2023-01-28T00:10:04;4.30;;;4.00;;
14528;SDS011;7351;51.194;4.098;2023-01-28T00:12:33;4.37;;;4.17;;
14528;SDS011;7351;51.194;4.098;2023-01-28T00:15:00;4.13;;;3.93;;
14528;SDS011;7351;51.194;4.098;2023-01-28T00:17:27;4.07;;;3.90;;
14528;SDS011;7351;51.194;4.098;2023-01-28T00:19:54;3.57;;;3.40;;
14528;SDS011;7351;51.194;4.098;2023-01-28T00:22:21;3.80;;;3.60;;
14528;SDS011;7351;51.194;4.098;2023-01-28T00:24:48;4.27;;;4.07;;
14528;SDS011;7351;51.194;4.098;2023-01-28T00:27:15;3.40;;;3.30;;
14528;SDS011;7351;51.194;4.098;2023-01-28T00:29:43;3.37;;;3.27;;
14528;SDS011;7351;51.194;4.098;2023-01-28T00:32:10;3.63;;;3.43;;
14528;SDS011;7351;51.194;4.098;2023-01-28T00:34:37;3.80;;;3.60;;
14528;SDS011;7351;51.194;4.098;2023-01-28T00:37:04;4.37;;;4.07;;
14528;SDS011;7351;51.194;4.098;2023-01-28T00:39:31;4.10;;;3.90;;
14528;SDS011;7351;51.194;4.098;2023-01-28T00:41:58;3.47;;;3.17;;
14528;SDS011;7351;51.194;4.098;2023-01-28T00:44:25;3.40;;;3.30;;
14528;SDS011;7351;51.194;4.098;2023-01-28T00:46:53;4.07;;;3.87;;
14528;SDS011;7351;51.194;4.098;2023-01-28T00:49:20;3.83;;;3.63;;
14528;SDS011;7351;51.194;4.098;2023-01-28T00:51:47;4.07;;;3.87;;
14528;SDS011;7351;51.194;4.098;2023-01-28T00:54:14;3.20;;;3.10;;
14528;SDS011;7351;51.194;4.098;2023-01-28T00:56:41;3.97;;;3.77;;
14528;SDS011;7351;51.194;4.098;2023-01-28T00:59:08;3.70;;;3.50;;
14528;SDS011;7351;51.194;4.098;2023-01-28T01:01:36;4.00;;;3.80;;
14528;SDS011;7351;51.194;4.098;2023-01-28T01:04:04;3.73;;;3.53;;
14528;SDS011;7351;51.194;4.098;2023-01-28T01:06:32;3.13;;;3.03;;
14528;SDS011;7351;51.194;4.098;2023-01-28T01:09:00;3.03;;;2.93;;
14528;SDS011;7351;51.194;4.098;2023-01-28T01:11:27;4.00;;;3.80;;
14528;SDS011;7351;51.194;4.098;2023-01-28T01:13:55;3.77;;;3.57;;
14528;SDS011;7351;51.194;4.098;2023-01-28T01:16:24;3.60;;;3.40;;
14528;SDS011;7351;51.194;4.098;2023-01-28T01:18:53;3.20;;;3.10;;
14528;SDS011;7351;51.194;4.098;2023-01-28T01:21:23;3.20;;;3.10;;
14528;SDS011;7351;51.194;4.098;2023-01-28T01:23:51;3.30;;;3.20;;
14528;SDS011;7351;51.194;4.098;2023-01-28T01:26:18;3.47;;;3.27;;
14528;SDS011;7351;51.194;4.098;2023-01-28T01:28:45;3.33;;;3.20;;
14528;SDS011;7351;51.194;4.098;2023-01-28T01:31:13;3.17;;;3.00;;
14528;SDS011;7351;51.194;4.098;2023-01-28T01:33:42;3.13;;;3.03;;
14528;SDS011;7351;51.194;4.098;2023-01-28T01:36:11;3.07;;;2.97;;
14528;SDS011;7351;51.194;4.098;2023-01-28T01:38:40;3.33;;;3.23;;
14528;SDS011;7351;51.194;4.098;2023-01-28T01:41:07;2.80;;;2.57;;
14528;SDS011;7351;51.194;4.098;2023-01-28T01:43:48;3.30;;;3.20;;
14528;SDS011;7351;51.194;4.098;2023-01-28T01:46:16;2.97;;;2.83;;
14528;SDS011;7351;51.194;4.098;2023-01-28T01:48:46;3.07;;;2.87;;
14528;SDS011;7351;51.194;4.098;2023-01-28T01:51:14;3.20;;;3.03;;
14528;SDS011;7351;51.194;4.098;2023-01-28T01:53:47;3.40;;;3.30;;
14528;SDS011;7351;51.194;4.098;2023-01-28T01:56:18;3.10;;;2.87;;
14528;SDS011;7351;51.194;4.098;2023-01-28T01:58:51;2.80;;;2.70;;
14528;SDS011;7351;51.194;4.098;2023-01-28T02:01:21;3.20;;;3.10;;
14528;SDS011;7351;51.194;4.098;2023-01-28T02:03:54;2.73;;;2.63;;
14528;SDS011;7351;51.194;4.098;2023-01-28T02:06:26;2.37;;;2.27;;
14528;SDS011;7351;51.194;4.098;2023-01-28T02:08:57;2.87;;;2.77;;
14528;SDS011;7351;51.194;4.098;2023-01-28T02:11:24;2.90;;;2.80;;
14528;SDS011;7351;51.194;4.098;2023-01-28T02:13:54;2.83;;;2.50;;
14528;SDS011;7351;51.194;4.098;2023-01-28T02:16:24;2.23;;;2.13;;
14528;SDS011;7351;51.194;4.098;2023-01-28T02:18:53;3.50;;;3.23;;
14528;SDS011;7351;51.194;4.098;2023-01-28T02:24:27;2.20;;;2.10;;
14528;SDS011;7351;51.194;4.098;2023-01-28T02:27:18;2.73;;;2.63;;
14528;SDS011;7351;51.194;4.098;2023-01-28T02:29:52;2.60;;;2.50;;
14528;SDS011;7351;51.194;4.098;2023-01-28T02:32:24;3.40;;;3.20;;
14528;SDS011;7351;51.194;4.098;2023-01-28T02:35:00;2.63;;;2.53;;
14528;SDS011;7351;51.194;4.098;2023-01-28T02:37:33;3.00;;;2.90;;
14528;SDS011;7351;51.194;4.098;2023-01-28T02:40:05;2.13;;;2.03;;
14528;SDS011;7351;51.194;4.098;2023-01-28T02:42:36;2.60;;;2.50;;
14528;SDS011;7351;51.194;4.098;2023-01-28T02:45:10;2.80;;;2.70;;
14528;SDS011;7351;51.194;4.098;2023-01-28T02:47:43;2.70;;;2.60;;
14528;SDS011;7351;51.194;4.098;2023-01-28T02:50:21;3.27;;;3.17;;
14528;SDS011;7351;51.194;4.098;2023-01-28T02:52:54;3.27;;;3.07;;
14528;SDS011;7351;51.194;4.098;2023-01-28T02:55:47;3.03;;;2.93;;
14528;SDS011;7351;51.194;4.098;2023-01-28T02:58:21;3.27;;;3.17;;
14528;SDS011;7351;51.194;4.098;2023-01-28T03:00:58;2.83;;;2.73;;
14528;SDS011;7351;51.194;4.098;2023-01-28T03:03:28;2.83;;;2.73;;
14528;SDS011;7351;51.194;4.098;2023-01-28T03:06:01;3.20;;;3.10;;
14528;SDS011;7351;51.194;4.098;2023-01-28T03:08:33;3.17;;;3.07;;
14528;SDS011;7351;51.194;4.098;2023-01-28T03:11:20;3.40;;;3.20;;
14528;SDS011;7351;51.194;4.098;2023-01-28T03:14:05;2.77;;;2.67;;
14528;SDS011;7351;51.194;4.098;2023-01-28T03:16:52;3.13;;;3.03;;
14528;SDS011;7351;51.194;4.098;2023-01-28T03:19:39;3.77;;;3.57;;
14528;SDS011;7351;51.194;4.098;2023-01-28T03:22:23;3.37;;;3.27;;
14528;SDS011;7351;51.194;4.098;2023-01-28T03:25:11;3.40;;;3.20;;
14528;SDS011;7351;51.194;4.098;2023-01-28T03:27:58;3.23;;;3.13;;
14528;SDS011;7351;51.194;4.098;2023-01-28T03:30:47;3.43;;;3.23;;
14528;SDS011;7351;51.194;4.098;2023-01-28T03:33:36;2.93;;;2.83;;
14528;SDS011;7351;51.194;4.098;2023-01-28T03:36:21;3.80;;;3.60;;
14528;SDS011;7351;51.194;4.098;2023-01-28T03:39:06;3.80;;;3.60;;
14528;SDS011;7351;51.194;4.098;2023-01-28T03:41:33;3.40;;;3.30;;
14528;SDS011;7351;51.194;4.098;2023-01-28T03:44:00;4.10;;;3.90;;
14528;SDS011;7351;51.194;4.098;2023-01-28T03:46:45;3.53;;;3.33;;
14528;SDS011;7351;51.194;4.098;2023-01-28T03:49:14;2.90;;;2.80;;
14528;SDS011;7351;51.194;4.098;2023-01-28T03:51:41;3.07;;;2.97;;
14528;SDS011;7351;51.194;4.098;2023-01-28T03:54:10;4.23;;;4.03;;
14528;SDS011;7351;51.194;4.098;2023-01-28T03:56:37;4.13;;;3.93;;
14528;SDS011;7351;51.194;4.098;2023-01-28T03:59:05;4.33;;;4.13;;
14528;SDS011;7351;51.194;4.098;2023-01-28T04:01:32;3.60;;;3.40;;
14528;SDS011;7351;51.194;4.098;2023-01-28T04:03:59;3.30;;;3.20;;
14528;SDS011;7351;51.194;4.098;2023-01-28T04:06:28;4.20;;;3.90;;
14528;SDS011;7351;51.194;4.098;2023-01-28T04:08:55;3.83;;;3.63;;
14528;SDS011;7351;51.194;4.098;2023-01-28T04:11:23;4.13;;;3.93;;
14528;SDS011;7351;51.194;4.098;2023-01-28T04:13:50;4.13;;;3.93;;
14528;SDS011;7351;51.194;4.098;2023-01-28T04:16:18;4.10;;;3.90;;
14528;SDS011;7351;51.194;4.098;2023-01-28T04:18:45;3.83;;;3.63;;
14528;SDS011;7351;51.194;4.098;2023-01-28T04:21:12;4.30;;;4.10;;
14528;SDS011;7351;51.194;4.098;2023-01-28T04:23:41;4.13;;;3.93;;
14528;SDS011;7351;51.194;4.098;2023-01-28T04:26:08;4.13;;;3.93;;
14528;SDS011;7351;51.194;4.098;2023-01-28T04:28:35;3.93;;;3.73;;
14528;SDS011;7351;51.194;4.098;2023-01-28T04:31:02;3.83;;;3.63;;
14528;SDS011;7351;51.194;4.098;2023-01-28T04:33:29;4.30;;;4.10;;
14528;SDS011;7351;51.194;4.098;2023-01-28T04:35:56;4.23;;;4.03;;
14528;SDS011;7351;51.194;4.098;2023-01-28T04:38:23;4.47;;;4.27;;
14528;SDS011;7351;51.194;4.098;2023-01-28T04:40:51;4.00;;;3.70;;
14528;SDS011;7351;51.194;4.098;2023-01-28T04:43:19;4.20;;;4.00;;
14528;SDS011;7351;51.194;4.098;2023-01-28T04:45:47;4.07;;;3.87;;
14528;SDS011;7351;51.194;4.098;2023-01-28T04:48:14;4.50;;;4.20;;
14528;SDS011;7351;51.194;4.098;2023-01-28T04:50:42;4.17;;;3.93;;
14528;SDS011;7351;51.194;4.098;2023-01-28T04:53:09;4.27;;;4.00;;
14528;SDS011;7351;51.194;4.098;2023-01-28T04:55:37;4.23;;;4.03;;
14528;SDS011;7351;51.194;4.098;2023-01-28T04:58:05;4.37;;;4.17;;
14528;SDS011;7351;51.194;4.098;2023-01-28T05:00:32;4.30;;;4.10;;
14528;SDS011;7351;51.194;4.098;2023-01-28T05:02:59;3.97;;;3.77;;
14528;SDS011;7351;51.194;4.098;2023-01-28T05:05:26;4.10;;;3.90;;
14528;SDS011;7351;51.194;4.098;2023-01-28T05:07:54;5.37;;;4.57;;
14528;SDS011;7351;51.194;4.098;2023-01-28T05:10:23;3.90;;;3.70;;
14528;SDS011;7351;51.194;4.098;2023-01-28T05:12:50;4.60;;;4.20;;
14528;SDS011;7351;51.194;4.098;2023-01-28T05:15:19;4.00;;;3.80;;
14528;SDS011;7351;51.194;4.098;2023-01-28T05:17:46;4.23;;;4.03;;
14528;SDS011;7351;51.194;4.098;2023-01-28T05:20:13;4.00;;;3.80;;
14528;SDS011;7351;51.194;4.098;2023-01-28T05:22:40;3.83;;;3.63;;
14528;SDS011;7351;51.194;4.098;2023-01-28T05:25:08;4.30;;;4.10;;
14528;SDS011;7351;51.194;4.098;2023-01-28T05:27:35;4.00;;;3.80;;
14528;SDS011;7351;51.194;4.098;2023-01-28T05:30:03;3.97;;;3.80;;
14528;SDS011;7351;51.194;4.098;2023-01-28T05:32:32;4.10;;;3.90;;
14528;SDS011;7351;51.194;4.098;2023-01-28T05:34:59;5.07;;;4.80;;
14528;SDS011;7351;51.194;4.098;2023-01-28T05:37:26;5.30;;;4.83;;
14528;SDS011;7351;51.194;4.098;2023-01-28T05:39:53;8.37;;;7.83;;
14528;SDS011;7351;51.194;4.098;2023-01-28T05:42:20;7.83;;;7.43;;
14528;SDS011;7351;51.194;4.098;2023-01-28T05:44:47;7.60;;;6.93;;
14528;SDS011;7351;51.194;4.098;2023-01-28T05:47:14;17.23;;;6.57;;
14528;SDS011;7351;51.194;4.098;2023-01-28T05:49:43;6.53;;;6.03;;
14528;SDS011;7351;51.194;4.098;2023-01-28T05:52:10;5.40;;;4.83;;
14528;SDS011;7351;51.194;4.098;2023-01-28T05:54:37;6.33;;;5.73;;
14528;SDS011;7351;51.194;4.098;2023-01-28T05:57:04;5.47;;;5.17;;
14528;SDS011;7351;51.194;4.098;2023-01-28T05:59:31;5.83;;;4.77;;
14528;SDS011;7351;51.194;4.098;2023-01-28T06:01:58;5.10;;;4.60;;
14528;SDS011;7351;51.194;4.098;2023-01-28T06:04:25;6.00;;;4.33;;
14528;SDS011;7351;51.194;4.098;2023-01-28T06:06:53;4.63;;;4.27;;
14528;SDS011;7351;51.194;4.098;2023-01-28T06:09:20;4.10;;;3.90;;
14528;SDS011;7351;51.194;4.098;2023-01-28T06:11:47;4.93;;;3.97;;
14528;SDS011;7351;51.194;4.098;2023-01-28T06:14:15;5.13;;;4.17;;
14528;SDS011;7351;51.194;4.098;2023-01-28T06:16:42;6.20;;;4.23;;
14528;SDS011;7351;51.194;4.098;2023-01-28T06:19:09;5.93;;;3.87;;
14528;SDS011;7351;51.194;4.098;2023-01-28T06:21:36;4.53;;;4.17;;
14528;SDS011;7351;51.194;4.098;2023-01-28T06:24:04;15.47;;;3.77;;
14528;SDS011;7351;51.194;4.098;2023-01-28T06:26:31;10.17;;;4.77;;
14528;SDS011;7351;51.194;4.098;2023-01-28T06:28:58;5.30;;;4.80;;
14528;SDS011;7351;51.194;4.098;2023-01-28T06:31:25;6.80;;;5.40;;
14528;SDS011;7351;51.194;4.098;2023-01-28T06:33:52;6.03;;;5.53;;
14528;SDS011;7351;51.194;4.098;2023-01-28T06:36:19;6.77;;;6.33;;
14528;SDS011;7351;51.194;4.098;2023-01-28T06:38:46;5.83;;;5.43;;
14528;SDS011;7351;51.194;4.098;2023-01-28T06:41:14;5.63;;;5.13;;
14528;SDS011;7351;51.194;4.098;2023-01-28T06:43:41;6.53;;;5.93;;
14528;SDS011;7351;51.194;4.098;2023-01-28T06:46:08;5.40;;;4.90;;
14528;SDS011;7351;51.194;4.098;2023-01-28T06:48:35;6.47;;;6.03;;
14528;SDS011;7351;51.194;4.098;2023-01-28T06:51:03;5.23;;;4.93;;
14528;SDS011;7351;51.194;4.098;2023-01-28T06:53:30;6.27;;;5.87;;
14528;SDS011;7351;51.194;4.098;2023-01-28T06:55:57;5.37;;;4.87;;
14528;SDS011;7351;51.194;4.098;2023-01-28T06:58:25;5.30;;;4.90;;
14528;SDS011;7351;51.194;4.098;2023-01-28T07:00:52;4.80;;;4.50;;
14528;SDS011;7351;51.194;4.098;2023-01-28T07:03:19;5.97;;;5.67;;
14528;SDS011;7351;51.194;4.098;2023-01-28T07:05:46;5.07;;;4.77;;
14528;SDS011;7351;51.194;4.098;2023-01-28T07:08:13;5.20;;;4.90;;
14528;SDS011;7351;51.194;4.098;2023-01-28T07:10:40;5.47;;;4.20;;
14528;SDS011;7351;51.194;4.098;2023-01-28T07:13:08;4.50;;;4.27;;
14528;SDS011;7351;51.194;4.098;2023-01-28T07:15:36;3.97;;;3.77;;
14528;SDS011;7351;51.194;4.098;2023-01-28T07:18:03;4.23;;;3.93;;
14528;SDS011;7351;51.194;4.098;2023-01-28T07:20:31;4.33;;;4.03;;
14528;SDS011;7351;51.194;4.098;2023-01-28T07:22:57;4.87;;;4.47;;
14528;SDS011;7351;51.194;4.098;2023-01-28T07:25:24;4.43;;;4.13;;
14528;SDS011;7351;51.194;4.098;2023-01-28T07:27:52;4.03;;;3.73;;
14528;SDS011;7351;51.194;4.098;2023-01-28T07:30:19;4.57;;;4.27;;
14528;SDS011;7351;51.194;4.098;2023-01-28T07:32:52;3.93;;;3.73;;
14528;SDS011;7351;51.194;4.098;2023-01-28T07:35:20;3.90;;;3.70;;
14528;SDS011;7351;51.194;4.098;2023-01-28T07:37:50;4.60;;;4.30;;
14528;SDS011;7351;51.194;4.098;2023-01-28T07:40:18;5.03;;;4.73;;
14528;SDS011;7351;51.194;4.098;2023-01-28T07:42:46;4.33;;;4.03;;
14528;SDS011;7351;51.194;4.098;2023-01-28T07:45:13;4.73;;;4.30;;
14528;SDS011;7351;51.194;4.098;2023-01-28T07:47:40;4.70;;;4.40;;
14528;SDS011;7351;51.194;4.098;2023-01-28T07:50:09;4.33;;;4.13;;
14528;SDS011;7351;51.194;4.098;2023-01-28T07:52:37;4.23;;;4.00;;
14528;SDS011;7351;51.194;4.098;2023-01-28T07:55:08;4.40;;;4.10;;
14528;SDS011;7351;51.194;4.098;2023-01-28T07:57:36;4.47;;;4.20;;
14528;SDS011;7351;51.194;4.098;2023-01-28T08:00:03;4.70;;;4.50;;
14528;SDS011;7351;51.194;4.098;2023-01-28T08:02:31;4.70;;;4.40;;
14528;SDS011;7351;51.194;4.098;2023-01-28T08:04:58;5.07;;;4.77;;
14528;SDS011;7351;51.194;4.098;2023-01-28T08:07:27;4.67;;;4.27;;
14528;SDS011;7351;51.194;4.098;2023-01-28T08:09:54;4.33;;;3.93;;
14528;SDS011;7351;51.194;4.098;2023-01-28T08:12:21;4.10;;;3.80;;
14528;SDS011;7351;51.194;4.098;2023-01-28T08:14:48;4.77;;;4.47;;
14528;SDS011;7351;51.194;4.098;2023-01-28T08:17:15;3.90;;;3.70;;
14528;SDS011;7351;51.194;4.098;2023-01-28T08:19:42;4.43;;;4.13;;
14528;SDS011;7351;51.194;4.098;2023-01-28T08:22:09;4.10;;;3.80;;
14528;SDS011;7351;51.194;4.098;2023-01-28T08:24:40;4.10;;;3.90;;
14528;SDS011;7351;51.194;4.098;2023-01-28T08:27:07;3.97;;;3.77;;
14528;SDS011;7351;51.194;4.098;2023-01-28T08:29:34;4.40;;;4.10;;
14528;SDS011;7351;51.194;4.098;2023-01-28T08:32:01;4.13;;;3.73;;
14528;SDS011;7351;51.194;4.098;2023-01-28T08:34:28;7.50;;;4.27;;
14528;SDS011;7351;51.194;4.098;2023-01-28T08:36:55;3.97;;;3.77;;
14528;SDS011;7351;51.194;4.098;2023-01-28T08:39:22;4.70;;;4.43;;
14528;SDS011;7351;51.194;4.098;2023-01-28T08:41:50;4.97;;;4.57;;
14528;SDS011;7351;51.194;4.098;2023-01-28T08:44:17;4.70;;;4.40;;
14528;SDS011;7351;51.194;4.098;2023-01-28T08:46:44;3.93;;;3.73;;
14528;SDS011;7351;51.194;4.098;2023-01-28T08:49:11;5.17;;;4.77;;
14528;SDS011;7351;51.194;4.098;2023-01-28T08:51:38;4.40;;;4.13;;
14528;SDS011;7351;51.194;4.098;2023-01-28T08:54:05;4.60;;;4.30;;
14528;SDS011;7351;51.194;4.098;2023-01-28T08:56:32;3.67;;;3.43;;
14528;SDS011;7351;51.194;4.098;2023-01-28T08:59:00;4.50;;;4.30;;
14528;SDS011;7351;51.194;4.098;2023-01-28T09:01:27;3.77;;;3.57;;
14528;SDS011;7351;51.194;4.098;2023-01-28T09:03:54;5.90;;;4.20;;
14528;SDS011;7351;51.194;4.098;2023-01-28T09:06:21;4.77;;;4.47;;
14528;SDS011;7351;51.194;4.098;2023-01-28T09:08:48;5.10;;;4.50;;
14528;SDS011;7351;51.194;4.098;2023-01-28T09:11:15;6.37;;;4.63;;
14528;SDS011;7351;51.194;4.098;2023-01-28T09:13:42;7.57;;;5.40;;
14528;SDS011;7351;51.194;4.098;2023-01-28T09:16:10;8.70;;;5.43;;
14528;SDS011;7351;51.194;4.098;2023-01-28T09:18:37;9.10;;;4.60;;
14528;SDS011;7351;51.194;4.098;2023-01-28T09:21:05;5.43;;;4.70;;
14528;SDS011;7351;51.194;4.098;2023-01-28T09:23:33;5.47;;;5.07;;
14528;SDS011;7351;51.194;4.098;2023-01-28T09:26:01;5.80;;;5.10;;
14528;SDS011;7351;51.194;4.098;2023-01-28T09:28:28;6.37;;;4.67;;
14528;SDS011;7351;51.194;4.098;2023-01-28T09:30:59;5.97;;;5.47;;
14528;SDS011;7351;51.194;4.098;2023-01-28T09:33:29;6.87;;;6.10;;
14528;SDS011;7351;51.194;4.098;2023-01-28T09:35:58;4.97;;;4.60;;
14528;SDS011;7351;51.194;4.098;2023-01-28T09:38:25;5.10;;;4.57;;
14528;SDS011;7351;51.194;4.098;2023-01-28T09:40:52;5.80;;;5.23;;
14528;SDS011;7351;51.194;4.098;2023-01-28T09:46:11;5.63;;;5.23;;
14528;SDS011;7351;51.194;4.098;2023-01-28T09:48:42;5.17;;;4.73;;
14528;SDS011;7351;51.194;4.098;2023-01-28T09:51:15;5.40;;;5.07;;
14528;SDS011;7351;51.194;4.098;2023-01-28T09:53:56;4.80;;;4.60;;
14528;SDS011;7351;51.194;4.098;2023-01-28T09:56:27;5.13;;;4.83;;
14528;SDS011;7351;51.194;4.098;2023-01-28T09:58:57;5.07;;;4.73;;
14528;SDS011;7351;51.194;4.098;2023-01-28T10:01:44;5.77;;;5.37;;
14528;SDS011;7351;51.194;4.098;2023-01-28T10:04:20;5.67;;;5.27;;
14528;SDS011;7351;51.194;4.098;2023-01-28T10:06:57;5.27;;;4.93;;
14528;SDS011;7351;51.194;4.098;2023-01-28T10:09:37;5.93;;;5.60;;
14528;SDS011;7351;51.194;4.098;2023-01-28T10:12:18;5.97;;;5.53;;
14528;SDS011;7351;51.194;4.098;2023-01-28T10:15:03;6.03;;;5.63;;
14528;SDS011;7351;51.194;4.098;2023-01-28T10:17:49;5.60;;;5.30;;
14528;SDS011;7351;51.194;4.098;2023-01-28T10:20:21;6.07;;;5.77;;
14528;SDS011;7351;51.194;4.098;2023-01-28T10:22:53;6.03;;;5.53;;
14528;SDS011;7351;51.194;4.098;2023-01-28T10:25:27;5.23;;;4.90;;
14528;SDS011;7351;51.194;4.098;2023-01-28T10:27:55;5.53;;;5.13;;
14528;SDS011;7351;51.194;4.098;2023-01-28T10:30:23;5.73;;;5.33;;
14528;SDS011;7351;51.194;4.098;2023-01-28T10:32:52;5.97;;;5.57;;
14528;SDS011;7351;51.194;4.098;2023-01-28T10:35:23;5.63;;;5.23;;
14528;SDS011;7351;51.194;4.098;2023-01-28T10:37:51;5.20;;;4.90;;
14528;SDS011;7351;51.194;4.098;2023-01-28T10:40:25;5.30;;;4.90;;
14528;SDS011;7351;51.194;4.098;2023-01-28T10:42:52;5.13;;;4.83;;
14528;SDS011;7351;51.194;4.098;2023-01-28T10:45:20;5.53;;;5.23;;
14528;SDS011;7351;51.194;4.098;2023-01-28T10:47:50;4.97;;;4.67;;
14528;SDS011;7351;51.194;4.098;2023-01-28T10:50:21;4.90;;;4.70;;
14528;SDS011;7351;51.194;4.098;2023-01-28T10:52:54;5.40;;;5.10;;
14528;SDS011;7351;51.194;4.098;2023-01-28T10:55:22;6.23;;;5.43;;
14528;SDS011;7351;51.194;4.098;2023-01-28T10:57:52;5.47;;;5.17;;
14528;SDS011;7351;51.194;4.098;2023-01-28T11:00:22;6.03;;;5.67;;
14528;SDS011;7351;51.194;4.098;2023-01-28T11:02:51;5.17;;;4.77;;
14528;SDS011;7351;51.194;4.098;2023-01-28T11:05:21;5.73;;;5.33;;
14528;SDS011;7351;51.194;4.098;2023-01-28T11:08:02;7.80;;;5.50;;
14528;SDS011;7351;51.194;4.098;2023-01-28T11:10:30;5.67;;;5.20;;
14528;SDS011;7351;51.194;4.098;2023-01-28T11:12:59;5.93;;;4.80;;
14528;SDS011;7351;51.194;4.098;2023-01-28T11:15:27;5.13;;;4.73;;
14528;SDS011;7351;51.194;4.098;2023-01-28T11:17:55;4.67;;;4.47;;
14528;SDS011;7351;51.194;4.098;2023-01-28T11:20:26;6.63;;;4.20;;
14528;SDS011;7351;51.194;4.098;2023-01-28T11:22:55;4.77;;;4.40;;
14528;SDS011;7351;51.194;4.098;2023-01-28T11:25:26;4.90;;;4.47;;
14528;SDS011;7351;51.194;4.098;2023-01-28T11:27:56;5.70;;;5.27;;
14528;SDS011;7351;51.194;4.098;2023-01-28T11:30:25;4.77;;;4.47;;
14528;SDS011;7351;51.194;4.098;2023-01-28T11:32:56;4.17;;;3.97;;
14528;SDS011;7351;51.194;4.098;2023-01-28T11:35:38;4.43;;;4.10;;
14528;SDS011;7351;51.194;4.098;2023-01-28T11:38:11;5.37;;;3.83;;
14528;SDS011;7351;51.194;4.098;2023-01-28T11:40:49;5.33;;;3.60;;
14528;SDS011;7351;51.194;4.098;2023-01-28T11:43:17;3.83;;;3.53;;
14528;SDS011;7351;51.194;4.098;2023-01-28T11:45:47;4.20;;;3.73;;
14528;SDS011;7351;51.194;4.098;2023-01-28T11:48:25;4.67;;;3.80;;
14528;SDS011;7351;51.194;4.098;2023-01-28T11:51:05;3.77;;;3.57;;
14528;SDS011;7351;51.194;4.098;2023-01-28T11:53:50;3.80;;;3.50;;
14528;SDS011;7351;51.194;4.098;2023-01-28T11:56:42;3.80;;;3.53;;
14528;SDS011;7351;51.194;4.098;2023-01-28T11:59:27;3.70;;;3.07;;
14528;SDS011;7351;51.194;4.098;2023-01-28T12:02:15;3.03;;;2.83;;
14528;SDS011;7351;51.194;4.098;2023-01-28T12:05:07;2.70;;;2.60;;
14528;SDS011;7351;51.194;4.098;2023-01-28T12:07:46;3.67;;;3.40;;
14528;SDS011;7351;51.194;4.098;2023-01-28T12:10:21;3.77;;;3.57;;
14528;SDS011;7351;51.194;4.098;2023-01-28T12:19:00;3.03;;;2.90;;
14528;SDS011;7351;51.194;4.098;2023-01-28T12:21:38;3.10;;;2.90;;
14528;SDS011;7351;51.194;4.098;2023-01-28T12:24:18;3.30;;;3.10;;
14528;SDS011;7351;51.194;4.098;2023-01-28T12:26:55;2.87;;;2.67;;
14528;SDS011;7351;51.194;4.098;2023-01-28T12:29:32;3.67;;;3.37;;
14528;SDS011;7351;51.194;4.098;2023-01-28T12:32:16;3.60;;;3.30;;
14528;SDS011;7351;51.194;4.098;2023-01-28T12:37:52;6.13;;;3.03;;
14528;SDS011;7351;51.194;4.098;2023-01-28T12:43:18;3.40;;;3.10;;
14528;SDS011;7351;51.194;4.098;2023-01-28T12:45:52;4.50;;;3.60;;
14528;SDS011;7351;51.194;4.098;2023-01-28T12:48:26;9.70;;;3.37;;
14528;SDS011;7351;51.194;4.098;2023-01-28T12:50:57;5.57;;;3.60;;
14528;SDS011;7351;51.194;4.098;2023-01-28T12:53:30;4.67;;;3.03;;
14528;SDS011;7351;51.194;4.098;2023-01-28T12:56:07;5.13;;;3.40;;
14528;SDS011;7351;51.194;4.098;2023-01-28T12:58:53;3.97;;;3.40;;
14528;SDS011;7351;51.194;4.098;2023-01-28T13:01:28;11.97;;;3.13;;
14528;SDS011;7351;51.194;4.098;2023-01-28T13:04:05;3.20;;;3.00;;
14528;SDS011;7351;51.194;4.098;2023-01-28T13:06:39;3.47;;;2.70;;
14528;SDS011;7351;51.194;4.098;2023-01-28T13:09:11;7.13;;;3.13;;
14528;SDS011;7351;51.194;4.098;2023-01-28T13:11:42;5.87;;;3.37;;
14528;SDS011;7351;51.194;4.098;2023-01-28T13:14:12;7.00;;;3.40;;
14528;SDS011;7351;51.194;4.098;2023-01-28T13:16:41;8.87;;;3.57;;
14528;SDS011;7351;51.194;4.098;2023-01-28T13:19:19;6.17;;;3.30;;
14528;SDS011;7351;51.194;4.098;2023-01-28T13:21:48;3.97;;;2.80;;
14528;SDS011;7351;51.194;4.098;2023-01-28T13:24:20;4.33;;;3.40;;
14528;SDS011;7351;51.194;4.098;2023-01-28T13:26:49;5.47;;;2.83;;
14528;SDS011;7351;51.194;4.098;2023-01-28T13:29:19;7.57;;;3.03;;
14528;SDS011;7351;51.194;4.098;2023-01-28T13:31:59;3.77;;;3.47;;
14528;SDS011;7351;51.194;4.098;2023-01-28T13:34:28;3.47;;;2.73;;
14528;SDS011;7351;51.194;4.098;2023-01-28T13:37:00;3.93;;;3.63;;
14528;SDS011;7351;51.194;4.098;2023-01-28T13:39:29;6.67;;;3.57;;
14528;SDS011;7351;51.194;4.098;2023-01-28T13:45:07;3.43;;;3.13;;
14528;SDS011;7351;51.194;4.098;2023-01-28T13:47:50;3.87;;;3.57;;
14528;SDS011;7351;51.194;4.098;2023-01-28T13:50:20;3.47;;;2.70;;
14528;SDS011;7351;51.194;4.098;2023-01-28T13:52:50;4.63;;;4.03;;
14528;SDS011;7351;51.194;4.098;2023-01-28T13:55:23;3.50;;;3.30;;
14528;SDS011;7351;51.194;4.098;2023-01-28T14:10:43;3.10;;;2.63;;
14528;SDS011;7351;51.194;4.098;2023-01-28T14:13:36;3.07;;;2.80;;
14528;SDS011;7351;51.194;4.098;2023-01-28T14:16:29;3.57;;;3.37;;
14528;SDS011;7351;51.194;4.098;2023-01-28T14:19:07;3.10;;;2.87;;
14528;SDS011;7351;51.194;4.098;2023-01-28T14:21:37;3.53;;;3.07;;
14528;SDS011;7351;51.194;4.098;2023-01-28T14:24:09;3.17;;;2.87;;
14528;SDS011;7351;51.194;4.098;2023-01-28T14:26:43;4.00;;;2.80;;
14528;SDS011;7351;51.194;4.098;2023-01-28T14:29:23;3.17;;;2.87;;
14528;SDS011;7351;51.194;4.098;2023-01-28T14:32:07;3.57;;;2.77;;
14528;SDS011;7351;51.194;4.098;2023-01-28T14:34:38;3.47;;;2.87;;
14528;SDS011;7351;51.194;4.098;2023-01-28T14:37:06;2.90;;;2.70;;
14528;SDS011;7351;51.194;4.098;2023-01-28T14:39:40;4.53;;;2.60;;
14528;SDS011;7351;51.194;4.098;2023-01-28T14:42:12;3.87;;;3.57;;
14528;SDS011;7351;51.194;4.098;2023-01-28T14:44:44;4.37;;;3.07;;
14528;SDS011;7351;51.194;4.098;2023-01-28T14:47:29;3.37;;;3.17;;
14528;SDS011;7351;51.194;4.098;2023-01-28T14:50:09;2.90;;;2.80;;
14528;SDS011;7351;51.194;4.098;2023-01-28T14:52:54;2.87;;;2.67;;
14528;SDS011;7351;51.194;4.098;2023-01-28T14:55:36;3.33;;;3.13;;
14528;SDS011;7351;51.194;4.098;2023-01-28T14:58:13;3.37;;;3.17;;
14528;SDS011;7351;51.194;4.098;2023-01-28T15:00:51;3.23;;;2.53;;
14528;SDS011;7351;51.194;4.098;2023-01-28T15:03:19;3.60;;;3.30;;
14528;SDS011;7351;51.194;4.098;2023-01-28T15:05:47;2.87;;;2.60;;
14528;SDS011;7351;51.194;4.098;2023-01-28T15:08:20;2.93;;;2.70;;
14528;SDS011;7351;51.194;4.098;2023-01-28T15:10:49;2.83;;;2.73;;
14528;SDS011;7351;51.194;4.098;2023-01-28T15:13:20;3.67;;;3.37;;
14528;SDS011;7351;51.194;4.098;2023-01-28T15:15:51;2.80;;;2.60;;
14528;SDS011;7351;51.194;4.098;2023-01-28T15:18:25;3.00;;;2.80;;
14528;SDS011;7351;51.194;4.098;2023-01-28T15:20:57;3.77;;;3.47;;
14528;SDS011;7351;51.194;4.098;2023-01-28T15:23:26;2.73;;;2.53;;
14528;SDS011;7351;51.194;4.098;2023-01-28T15:25:57;3.40;;;3.20;;
14528;SDS011;7351;51.194;4.098;2023-01-28T15:28:25;12.87;;;3.80;;
14528;SDS011;7351;51.194;4.098;2023-01-28T15:30:54;7.87;;;3.57;;
14528;SDS011;7351;51.194;4.098;2023-01-28T15:33:22;4.13;;;3.70;;
14528;SDS011;7351;51.194;4.098;2023-01-28T15:35:50;7.37;;;2.93;;
14528;SDS011;7351;51.194;4.098;2023-01-28T15:38:18;4.17;;;3.17;;
14528;SDS011;7351;51.194;4.098;2023-01-28T15:40:47;5.70;;;3.50;;
14528;SDS011;7351;51.194;4.098;2023-01-28T15:43:19;5.53;;;3.17;;
14528;SDS011;7351;51.194;4.098;2023-01-28T15:45:48;7.93;;;4.03;;
14528;SDS011;7351;51.194;4.098;2023-01-28T15:48:19;4.07;;;3.50;;
14528;SDS011;7351;51.194;4.098;2023-01-28T15:50:47;10.43;;;3.43;;
14528;SDS011;7351;51.194;4.098;2023-01-28T15:53:22;3.33;;;3.13;;
14528;SDS011;7351;51.194;4.098;2023-01-28T15:55:49;3.47;;;3.27;;